Lynn, Alabama
Current Conditions -  °F | °C
As of 12:56 PM on Saturday 25 Oct 2014 (Local Time) from K1M4 Reporting Station
Few Clouds Few Clouds  
Wind Chill: 23°   Ceiling: Unl
Heat Index: 23°   Visibility: 10mi
Dew Point: 14°   Wind: 7mph
Humidity: 59%   Direction: 300°WNW
Pressure: 30.12"   Gusts: NA
Location:  34.05°N, 87.55°W
Report Text: K1M4 251756Z AUTO 30006KT 10SM FEW041 23/14 A3012 RMK AO2 58012 T02270144 10227 20055 SLP210
Loading
Personal Weather Stations






























Interactive Weather Map
Tropical Storm Tracking
New forecast layout! Learn more

10-Day Weather Forecast

Advertisements
Track Severe Weather on mobile